createdAt,value
2019-01-05T00:00:16.200Z,3.75
2019-01-05T00:03:21.810Z,3.75
2019-01-05T00:06:37.833Z,3.79
2019-01-05T00:09:58.278Z,3.79
2019-01-05T00:13:02.120Z,3.77
2019-01-05T00:16:22.484Z,3.73
2019-01-05T00:19:38.403Z,3.78
2019-01-05T00:22:42.244Z,3.78
2019-01-05T00:25:49.164Z,3.77
2019-01-05T00:28:55.638Z,3.79
2019-01-05T00:32:18.158Z,3.79
2019-01-05T00:35:42.221Z,3.80
2019-01-05T00:39:05.111Z,3.74
2019-01-05T00:42:26.275Z,3.73
2019-01-05T00:45:49.005Z,3.68
2019-01-05T00:49:11.525Z,3.68
2019-01-05T00:52:28.071Z,3.63
2019-01-05T00:55:41.031Z,3.57
2019-01-05T00:58:44.841Z,3.52
2019-01-05T01:01:48.842Z,3.43
2019-01-05T01:04:52.684Z,3.46
2019-01-05T01:08:08.514Z,3.52
2019-01-05T01:11:27.476Z,3.54
2019-01-05T01:14:37.445Z,3.49
2019-01-05T01:17:59.433Z,3.45
2019-01-05T01:21:19.076Z,3.44
2019-01-05T01:24:22.959Z,3.38
2019-01-05T01:27:39.112Z,3.33
2019-01-05T01:30:42.906Z,3.37
2019-01-05T01:34:03.282Z,3.35
2019-01-05T01:37:10.069Z,3.37
2019-01-05T01:44:20.751Z,3.30
2019-01-05T01:47:33.948Z,3.17
2019-01-05T01:50:55.348Z,3.29
2019-01-05T01:54:00.190Z,3.40
2019-01-05T01:57:16.576Z,3.43
2019-01-05T02:00:26.285Z,3.54
2019-01-05T02:03:30.715Z,3.55
2019-01-05T02:06:39.945Z,3.60
2019-01-05T02:09:44.906Z,3.71
2019-01-05T02:12:58.342Z,3.72
2019-01-05T02:16:22.237Z,3.81
2019-01-05T02:19:40.754Z,3.85
2019-01-05T02:23:10.745Z,3.85
2019-01-05T02:26:42.515Z,3.90
2019-01-05T02:30:09.347Z,3.82
2019-01-05T02:33:36.787Z,3.78
2019-01-05T02:37:19.121Z,3.74
2019-01-05T02:40:50.982Z,3.78
2019-01-05T02:44:01.479Z,3.70
2019-01-05T02:47:28.458Z,3.74
2019-01-05T02:50:41.798Z,3.81
2019-01-05T02:54:30.350Z,3.78
2019-01-05T02:57:57.344Z,3.87
2019-01-05T03:01:29.150Z,3.75
2019-01-05T03:05:05.502Z,3.79
2019-01-05T03:08:38.794Z,3.81
2019-01-05T03:12:13.133Z,3.80
2019-01-05T03:15:47.696Z,3.80
2019-01-05T03:19:15.596Z,3.83
2019-01-05T03:22:58.164Z,3.83
2019-01-05T03:26:25.145Z,3.89
2019-01-05T03:30:01.362Z,3.83
2019-01-05T03:33:25.472Z,3.87
2019-01-05T03:37:09.817Z,3.84
2019-01-05T03:40:19.999Z,3.88
2019-01-05T03:44:00.903Z,3.83
2019-01-05T03:47:23.555Z,3.86
2019-01-05T03:51:07.659Z,3.81
2019-01-05T03:54:24.004Z,3.81
2019-01-05T03:57:52.907Z,3.87
2019-01-05T04:01:18.389Z,3.94
2019-01-05T04:04:34.987Z,3.95
2019-01-05T04:08:14.323Z,3.99
2019-01-05T04:12:04.480Z,4.00
2019-01-05T04:15:30.580Z,4.00
2019-01-05T04:18:47.055Z,3.96
2019-01-05T04:22:23.999Z,4.04
2019-01-05T04:25:54.582Z,4.07
2019-01-05T04:29:26.182Z,4.03
2019-01-05T04:33:24.519Z,4.04
2019-01-05T04:37:10.464Z,3.96
2019-01-05T04:40:30.027Z,3.88
2019-01-05T04:44:01.111Z,3.89
2019-01-05T04:47:17.109Z,3.97
2019-01-05T04:50:39.565Z,4.01
2019-01-05T04:54:02.320Z,3.99
2019-01-05T04:58:00.647Z,4.05
2019-01-05T05:01:07.995Z,4.03
2019-01-05T05:04:58.412Z,3.97
2019-01-05T05:08:31.927Z,4.08
2019-01-05T05:12:11.483Z,4.01
2019-01-05T05:15:52.319Z,4.05
2019-01-05T05:19:41.888Z,4.10
2019-01-05T05:23:09.075Z,4.07
2019-01-05T05:26:51.573Z,4.11
2019-01-05T05:30:08.154Z,4.15
2019-01-05T05:33:39.380Z,4.17
2019-01-05T05:37:15.908Z,4.27
2019-01-05T05:40:55.429Z,4.33
2019-01-05T05:44:38.186Z,4.33
2019-01-05T05:48:01.179Z,4.34
2019-01-05T05:51:20.022Z,4.37
2019-01-05T05:54:35.828Z,4.38
2019-01-05T05:58:05.873Z,4.46
2019-01-05T06:01:51.567Z,4.49
2019-01-05T06:05:35.257Z,4.47
2019-01-05T06:09:02.558Z,4.47
2019-01-05T06:12:27.321Z,4.49
2019-01-05T06:15:43.046Z,4.55
2019-01-05T06:19:11.277Z,4.61
2019-01-05T06:23:04.619Z,4.72
2019-01-05T06:26:54.121Z,4.77
2019-01-05T06:30:23.987Z,4.70
2019-01-05T06:33:53.900Z,4.72
2019-01-05T06:37:22.943Z,4.79
2019-01-05T06:40:42.310Z,4.84
2019-01-05T06:43:52.447Z,4.91
2019-01-05T06:47:05.670Z,4.99
2019-01-05T06:50:40.826Z,5.11
2019-01-05T06:54:30.307Z,5.15
2019-01-05T06:58:31.154Z,5.10
2019-01-05T07:01:55.285Z,5.08
2019-01-05T07:05:28.703Z,5.03
2019-01-05T07:09:11.259Z,5.15
2019-01-05T07:12:53.593Z,5.16
2019-01-05T07:16:26.259Z,5.15
2019-01-05T07:19:42.829Z,5.18
2019-01-05T07:23:42.438Z,5.18
2019-01-05T07:27:38.758Z,5.27
2019-01-05T07:31:08.564Z,5.22
2019-01-05T07:34:50.621Z,5.19
2019-01-05T07:38:31.521Z,5.26
2019-01-05T07:42:02.974Z,5.32
2019-01-05T07:45:31.431Z,5.34
2019-01-05T07:49:14.657Z,5.38
2019-01-05T07:53:06.215Z,5.45
2019-01-05T07:56:25.664Z,5.46
2019-01-05T08:00:03.434Z,5.47
2019-01-05T08:03:30.156Z,5.50
2019-01-05T08:06:43.209Z,5.54
2019-01-05T08:10:27.824Z,5.56
2019-01-05T08:14:24.821Z,5.62
2019-01-05T08:17:59.239Z,5.61
2019-01-05T08:21:27.921Z,5.58
2019-01-05T08:24:53.754Z,5.69
2019-01-05T08:28:20.781Z,5.76
2019-01-05T08:31:34.172Z,5.84
2019-01-05T08:35:13.087Z,5.88
2019-01-05T08:38:58.948Z,5.97
2019-01-05T08:42:55.313Z,5.98
2019-01-05T08:46:53.228Z,5.95
2019-01-05T08:50:23.785Z,5.95
2019-01-05T08:54:06.421Z,6.00
2019-01-05T08:57:29.076Z,6.13
2019-01-05T09:00:56.392Z,6.20
2019-01-05T09:04:25.265Z,6.33
2019-01-05T09:07:44.826Z,6.38
2019-01-05T09:11:11.722Z,6.41
2019-01-05T09:14:35.622Z,6.53
2019-01-05T09:18:01.382Z,6.58
2019-01-05T09:21:37.627Z,6.73
2019-01-05T09:25:07.689Z,6.78
2019-01-05T09:28:49.617Z,6.76
2019-01-05T09:32:28.881Z,6.84
2019-01-05T09:35:42.480Z,6.88
2019-01-05T09:39:26.359Z,6.93
2019-01-05T09:42:39.875Z,7.06
2019-01-05T09:46:20.978Z,7.07
2019-01-05T09:49:59.980Z,7.21
2019-01-05T09:53:51.734Z,7.27
2019-01-05T09:57:25.939Z,7.26
2019-01-05T10:00:45.234Z,7.25
2019-01-05T10:04:10.943Z,7.20
2019-01-05T10:07:38.036Z,7.21
2019-01-05T10:11:00.199Z,7.22
2019-01-05T10:14:36.683Z,7.33
2019-01-05T10:18:19.132Z,7.42
2019-01-05T10:22:06.390Z,7.36
2019-01-05T10:25:22.823Z,7.39
2019-01-05T10:28:57.166Z,7.44
2019-01-05T10:32:24.561Z,7.48
2019-01-05T10:36:00.998Z,7.53
2019-01-05T10:39:15.709Z,7.52
2019-01-05T10:42:35.103Z,7.44
2019-01-05T10:46:01.303Z,7.56
2019-01-05T10:49:46.499Z,7.53
2019-01-05T10:53:29.347Z,7.51
2019-01-05T10:57:06.901Z,7.34
2019-01-05T11:00:38.441Z,7.17
2019-01-05T11:04:02.752Z,7.04
2019-01-05T11:07:29.767Z,7.19
2019-01-05T11:10:55.478Z,7.28
2019-01-05T11:14:08.707Z,7.28
2019-01-05T11:17:27.979Z,7.34
2019-01-05T11:21:12.378Z,7.31
2019-01-05T11:25:09.951Z,7.36
2019-01-05T11:28:25.697Z,7.13
2019-01-05T11:31:41.878Z,6.96
2019-01-05T11:35:10.721Z,6.89
2019-01-05T11:38:59.169Z,6.84
2019-01-05T11:42:12.397Z,6.88
2019-01-05T11:45:25.839Z,6.81
2019-01-05T11:48:39.077Z,6.74
2019-01-05T11:52:21.139Z,6.79
2019-01-05T11:55:55.951Z,6.88
2019-01-05T11:59:20.320Z,6.88
2019-01-05T12:03:01.965Z,6.94
2019-01-05T12:06:15.456Z,7.15
2019-01-05T12:09:59.333Z,7.14
2019-01-05T12:13:49.649Z,7.35
2019-01-05T12:17:27.293Z,7.26
2019-01-05T12:21:03.944Z,7.27
2019-01-05T12:24:45.062Z,7.27
2019-01-05T12:28:19.894Z,7.30
2019-01-05T12:32:00.871Z,7.60
2019-01-05T12:35:31.081Z,7.79
2019-01-05T12:38:55.588Z,7.66
2019-01-05T12:42:30.382Z,7.49
2019-01-05T12:46:06.153Z,7.40
2019-01-05T12:49:31.782Z,7.35
2019-01-05T12:52:51.317Z,7.30
2019-01-05T12:56:10.965Z,7.18
2019-01-05T12:59:53.564Z,7.06
2019-01-05T13:03:22.247Z,7.07
2019-01-05T13:07:04.479Z,7.17
2019-01-05T13:10:54.507Z,7.16
2019-01-05T13:14:11.343Z,7.06
2019-01-05T13:17:58.367Z,6.98
2019-01-05T13:21:17.354Z,6.96
2019-01-05T13:24:46.159Z,6.97
2019-01-05T13:27:53.668Z,6.97
2019-01-05T13:31:22.690Z,6.89
2019-01-05T13:35:12.193Z,6.92
2019-01-05T13:38:45.728Z,6.79
2019-01-05T13:42:43.776Z,6.54
2019-01-05T13:46:23.488Z,6.44
2019-01-05T13:49:48.906Z,6.46
2019-01-05T13:53:11.489Z,6.43
2019-01-05T13:56:28.843Z,6.42
2019-01-05T13:59:38.519Z,6.49
2019-01-05T14:02:51.404Z,6.52
2019-01-05T14:05:58.044Z,6.49
2019-01-05T14:09:07.758Z,6.44
2019-01-05T14:12:14.265Z,6.40
2019-01-05T14:15:20.905Z,6.36
2019-01-05T14:18:30.634Z,6.27
2019-01-05T14:21:51.054Z,6.18
2019-01-05T14:25:10.271Z,6.15
2019-01-05T14:28:14.061Z,6.08
2019-01-05T14:31:17.887Z,5.95
2019-01-05T14:34:21.688Z,5.96
2019-01-05T14:37:40.599Z,5.96
2019-01-05T14:40:47.517Z,5.97
2019-01-05T14:43:51.258Z,5.97
2019-01-05T14:46:57.881Z,6.01
2019-01-05T14:50:07.762Z,6.00
2019-01-05T14:53:14.572Z,6.03
2019-01-05T14:56:35.161Z,5.99
2019-01-05T14:59:42.440Z,6.02
2019-01-05T15:02:52.889Z,5.95
2019-01-05T15:05:59.468Z,5.77
2019-01-05T15:09:12.245Z,5.64
2019-01-05T15:12:16.229Z,5.48
2019-01-05T15:15:26.109Z,5.21
2019-01-05T15:18:29.970Z,5.08
2019-01-05T15:21:33.661Z,4.90
2019-01-05T15:24:55.949Z,4.85
2019-01-05T15:28:08.642Z,4.79
2019-01-05T15:31:12.484Z,4.58
2019-01-05T15:34:25.081Z,4.52
2019-01-05T15:37:31.560Z,4.48
2019-01-05T15:40:44.479Z,4.39
2019-01-05T15:43:49.019Z,4.39
2019-01-05T15:46:53.003Z,4.39
2019-01-05T15:49:56.776Z,4.41
2019-01-05T15:53:00.508Z,4.45
2019-01-05T15:56:19.517Z,4.61
2019-01-05T15:59:41.890Z,4.86
2019-01-05T16:03:02.461Z,4.99
2019-01-05T16:06:09.429Z,5.09
2019-01-05T16:09:13.350Z,5.21
2019-01-05T16:12:17.142Z,5.38
2019-01-05T16:15:29.841Z,5.47
2019-01-05T16:18:33.795Z,5.51
2019-01-05T16:21:37.595Z,5.50
2019-01-05T16:24:47.338Z,5.49
2019-01-05T16:27:56.954Z,5.53
2019-01-05T16:31:12.779Z,5.57
2019-01-05T16:34:25.707Z,5.66
2019-01-05T16:37:32.609Z,5.70
2019-01-05T16:40:36.481Z,5.71
2019-01-05T16:43:46.302Z,5.70
2019-01-05T16:46:50.068Z,5.71
2019-01-05T16:50:03.122Z,5.60
2019-01-05T16:53:15.841Z,5.60
2019-01-05T16:56:31.895Z,5.55
2019-01-05T16:59:35.769Z,5.58
2019-01-05T17:02:56.362Z,5.57
2019-01-05T17:06:16.992Z,5.64
2019-01-05T17:09:20.801Z,5.61
2019-01-05T17:12:29.472Z,5.60
2019-01-05T17:15:50.288Z,5.64
2019-01-05T17:18:54.067Z,5.54
2019-01-05T17:22:03.890Z,5.54
2019-01-05T17:25:22.839Z,5.58
2019-01-05T17:28:26.630Z,5.63
2019-01-05T17:31:50.110Z,5.57
2019-01-05T17:35:10.246Z,5.58
2019-01-05T17:38:30.805Z,5.62
2019-01-05T17:41:37.756Z,5.61
2019-01-05T17:44:41.627Z,5.53
2019-01-05T17:47:51.507Z,5.48
2019-01-05T17:51:07.002Z,5.51
2019-01-05T17:54:27.308Z,5.52
2019-01-05T17:57:46.168Z,5.47
2019-01-05T18:01:06.523Z,5.48
2019-01-05T18:04:27.182Z,5.51
2019-01-05T18:07:30.980Z,5.56
2019-01-05T18:10:34.821Z,5.60
2019-01-05T18:13:38.656Z,5.61
2019-01-05T18:16:58.822Z,5.58
2019-01-05T18:20:14.902Z,5.52
2019-01-05T18:23:21.447Z,5.49
2019-01-05T18:26:28.871Z,5.46
2019-01-05T18:29:38.553Z,5.42
2019-01-05T18:32:58.995Z,5.29
2019-01-05T18:36:02.874Z,5.06
2019-01-05T18:39:20.779Z,4.91
2019-01-05T18:42:41.164Z,4.80
2019-01-05T18:45:48.075Z,4.79
2019-01-05T18:48:59.022Z,4.90
2019-01-05T18:52:07.126Z,4.99
2019-01-05T18:55:22.925Z,5.05
2019-01-05T18:58:32.819Z,5.03
2019-01-05T19:01:48.650Z,4.89
2019-01-05T19:05:11.178Z,4.96
2019-01-05T19:08:14.920Z,4.99
2019-01-05T19:11:35.124Z,4.96
2019-01-05T19:14:51.149Z,4.99
2019-01-05T19:17:57.912Z,5.00
2019-01-05T19:21:01.665Z,5.04
2019-01-05T19:24:24.612Z,5.07
2019-01-05T19:27:32.220Z,5.21
2019-01-05T19:30:36.000Z,5.21
2019-01-05T19:33:56.392Z,5.23
2019-01-05T19:37:00.330Z,5.29
2019-01-05T19:40:11.151Z,5.19
2019-01-05T19:43:14.987Z,5.10
2019-01-05T19:46:21.535Z,5.08
2019-01-05T19:49:25.398Z,5.01
2019-01-05T19:52:45.671Z,4.98
2019-01-05T19:55:49.519Z,5.06
2019-01-05T19:58:56.271Z,5.05
2019-01-05T20:02:00.493Z,5.10
2019-01-05T20:05:13.638Z,5.09
2019-01-05T20:08:23.404Z,5.12
2019-01-05T20:11:43.958Z,5.09
2019-01-05T20:15:04.553Z,4.99
2019-01-05T20:18:25.305Z,4.89
2019-01-05T20:21:29.122Z,4.86
2019-01-05T20:24:35.957Z,4.71
2019-01-05T20:27:57.477Z,4.74
2019-01-05T20:31:07.539Z,4.81
2019-01-05T20:34:28.316Z,4.80
2019-01-05T20:37:50.691Z,4.79
2019-01-05T20:41:12.297Z,4.77
2019-01-05T20:44:22.649Z,4.73
2019-01-05T20:47:43.208Z,4.80
2019-01-05T20:50:50.160Z,4.79
2019-01-05T20:53:57.241Z,4.73
2019-01-05T20:57:17.700Z,4.69
2019-01-05T21:00:21.519Z,4.67
2019-01-05T21:03:32.262Z,4.63
2019-01-05T21:06:45.147Z,4.56
2019-01-05T21:09:51.898Z,4.59
2019-01-05T21:13:06.387Z,4.47
2019-01-05T21:16:18.919Z,4.50
2019-01-05T21:19:39.924Z,4.46
2019-01-05T21:22:46.802Z,4.42
2019-01-05T21:26:07.831Z,4.47
2019-01-05T21:29:21.936Z,4.47
2019-01-05T21:32:37.565Z,4.36
2019-01-05T21:35:57.571Z,4.26
2019-01-05T21:39:04.165Z,4.18
2019-01-05T21:42:27.410Z,4.20
2019-01-05T21:45:40.135Z,4.22
2019-01-05T21:48:43.885Z,4.22
2019-01-05T21:52:02.726Z,4.24
2019-01-05T21:55:09.333Z,4.29
2019-01-05T21:58:19.271Z,4.25
2019-01-05T22:01:26.124Z,4.26
2019-01-05T22:04:33.118Z,4.21
2019-01-05T22:07:48.762Z,4.21
2019-01-05T22:11:05.882Z,4.32
2019-01-05T22:14:09.682Z,4.28
2019-01-05T22:17:13.455Z,4.24
2019-01-05T22:20:33.885Z,4.23
2019-01-05T22:23:40.902Z,4.09
2019-01-05T22:26:47.484Z,4.00
2019-01-05T22:29:51.282Z,3.95
2019-01-05T22:32:55.037Z,3.89
2019-01-05T22:36:11.207Z,3.88
2019-01-05T22:39:30.344Z,3.86
2019-01-05T22:42:34.083Z,3.71
2019-01-05T22:45:41.031Z,3.69
2019-01-05T22:48:50.814Z,3.73
2019-01-05T22:52:00.281Z,3.65
2019-01-05T22:55:15.911Z,3.65
2019-01-05T22:58:45.030Z,3.74
2019-01-05T23:01:48.895Z,3.72
2019-01-05T23:05:03.179Z,3.74
2019-01-05T23:08:20.521Z,3.85
2019-01-05T23:11:39.624Z,3.82
2019-01-05T23:14:49.249Z,3.75
2019-01-05T23:17:59.113Z,3.63
2019-01-05T23:21:06.005Z,3.61
2019-01-05T23:24:15.785Z,3.68
2019-01-05T23:27:19.573Z,3.79
2019-01-05T23:30:23.345Z,3.72
2019-01-05T23:33:39.469Z,3.79
2019-01-05T23:36:49.115Z,3.84
2019-01-05T23:40:11.114Z,3.79
2019-01-05T23:43:17.525Z,3.75
2019-01-05T23:46:30.245Z,3.75
2019-01-05T23:49:50.666Z,3.79
2019-01-05T23:52:57.168Z,3.79
2019-01-05T23:56:17.612Z,3.77
2019-01-05T23:59:21.384Z,3.80
